createdAt,value
2022-08-05T00:00:20.906Z,27.70
2022-08-05T00:02:51.008Z,27.70
2022-08-05T00:06:02.555Z,27.60
2022-08-05T00:08:33.062Z,27.60
2022-08-05T00:11:20.343Z,27.60
2022-08-05T00:13:53.366Z,27.60
2022-08-05T00:16:35.461Z,27.70
2022-08-05T00:19:13.172Z,27.70
2022-08-05T00:21:43.829Z,27.60
2022-08-05T00:24:11.943Z,27.60
2022-08-05T00:26:55.905Z,27.60
2022-08-05T00:29:32.923Z,27.70
2022-08-05T00:32:13.364Z,27.70
2022-08-05T00:35:04.557Z,27.70
2022-08-05T00:37:51.018Z,27.70
2022-08-05T00:40:27.423Z,27.60
2022-08-05T00:42:58.859Z,27.60
2022-08-05T00:45:38.619Z,27.60
2022-08-05T00:48:15.896Z,27.60
2022-08-05T00:50:46.750Z,27.60
2022-08-05T00:54:00.791Z,27.60
2022-08-05T00:56:22.718Z,27.50
2022-08-05T00:58:51.027Z,27.50
2022-08-05T01:01:42.447Z,27.50
2022-08-05T01:04:15.834Z,27.60
2022-08-05T01:06:51.796Z,27.50
2022-08-05T01:09:20.511Z,27.50
2022-08-05T01:11:51.849Z,27.40
2022-08-05T01:14:28.735Z,27.40
2022-08-05T01:17:05.677Z,27.30
2022-08-05T01:20:01.854Z,27.30
2022-08-05T01:22:40.926Z,27.40
2022-08-05T01:25:40.545Z,27.40
2022-08-05T01:28:31.699Z,27.40
2022-08-05T01:31:05.551Z,27.40
2022-08-05T01:33:40.750Z,27.40
2022-08-05T01:36:16.008Z,27.40
2022-08-05T01:38:48.441Z,27.40
2022-08-05T01:41:22.614Z,27.40
2022-08-05T01:43:56.584Z,27.40
2022-08-05T01:46:42.417Z,27.40
2022-08-05T01:49:24.046Z,27.40
2022-08-05T01:51:59.191Z,27.30
2022-08-05T01:54:45.857Z,27.30
2022-08-05T01:58:09.880Z,27.20
2022-08-05T02:00:12.553Z,27.10
2022-08-05T02:02:46.419Z,26.90
2022-08-05T02:05:28.751Z,26.80
2022-08-05T02:08:01.391Z,26.70
2022-08-05T02:10:36.984Z,26.70
2022-08-05T02:13:16.037Z,26.60
2022-08-05T02:15:54.792Z,26.60
2022-08-05T02:18:34.585Z,26.50
2022-08-05T02:21:15.134Z,26.60
2022-08-05T02:23:47.332Z,26.60
2022-08-05T02:26:23.783Z,26.70
2022-08-05T02:28:58.277Z,26.60
2022-08-05T02:31:34.610Z,26.40
2022-08-05T02:34:05.854Z,26.30
2022-08-05T02:36:40.202Z,26.20
2022-08-05T02:39:15.163Z,26.10
2022-08-05T02:41:57.742Z,25.90
2022-08-05T02:44:31.049Z,25.80
2022-08-05T02:47:10.186Z,25.80
2022-08-05T02:49:42.546Z,25.70
2022-08-05T02:52:29.639Z,25.80
2022-08-05T02:58:11.547Z,25.90
2022-08-05T03:00:31.386Z,25.90
2022-08-05T03:03:02.719Z,25.90
2022-08-05T03:06:53.762Z,25.90
2022-08-05T03:08:30.454Z,25.90
2022-08-05T03:11:55.599Z,25.90
2022-08-05T03:13:51.977Z,25.80
2022-08-05T03:16:31.547Z,25.90
2022-08-05T03:19:16.995Z,25.70
2022-08-05T03:21:48.702Z,25.70
2022-08-05T03:24:27.562Z,25.70
2022-08-05T03:27:13.924Z,25.70
2022-08-05T03:30:07.364Z,25.70
2022-08-05T03:32:37.648Z,25.80
2022-08-05T03:35:22.220Z,26.00
2022-08-05T03:37:50.158Z,25.80
2022-08-05T03:40:24.355Z,25.80
2022-08-05T03:43:15.921Z,25.70
2022-08-05T03:45:57.329Z,25.90
2022-08-05T03:48:27.110Z,25.90
2022-08-05T03:52:39.253Z,26.00
2022-08-05T03:56:05.199Z,26.10
2022-08-05T03:56:53.302Z,26.10
2022-08-05T03:59:24.785Z,26.10
2022-08-05T04:01:54.521Z,26.10
2022-08-05T04:04:28.146Z,26.20
2022-08-05T04:06:58.950Z,26.10
2022-08-05T04:09:28.046Z,26.20
2022-08-05T04:11:57.134Z,26.10
2022-08-05T04:14:30.343Z,26.00
2022-08-05T04:17:03.107Z,26.00
2022-08-05T04:19:44.134Z,25.90
2022-08-05T04:22:20.545Z,25.70
2022-08-05T04:24:52.690Z,25.70
2022-08-05T04:27:41.751Z,25.80
2022-08-05T04:30:14.031Z,25.80
2022-08-05T04:32:45.346Z,25.80
2022-08-05T04:35:19.548Z,25.60
2022-08-05T04:38:02.995Z,25.40
2022-08-05T04:40:38.892Z,25.40
2022-08-05T04:43:16.702Z,25.10
2022-08-05T04:45:55.609Z,25.20
2022-08-05T04:48:27.496Z,25.30
2022-08-05T04:51:03.237Z,25.40
2022-08-05T04:53:39.628Z,25.40
2022-08-05T04:56:33.769Z,25.50
2022-08-05T04:58:59.156Z,25.50
2022-08-05T05:02:05.769Z,25.50
2022-08-05T05:04:20.103Z,25.50
2022-08-05T05:06:57.390Z,25.60
2022-08-05T05:09:29.165Z,25.60
2022-08-05T05:12:03.070Z,25.70
2022-08-05T05:14:32.202Z,25.70
2022-08-05T05:17:00.364Z,25.70
2022-08-05T05:19:37.272Z,25.70
2022-08-05T05:22:23.797Z,25.80
2022-08-05T05:25:00.168Z,25.70
2022-08-05T05:27:45.911Z,25.60
2022-08-05T05:30:30.604Z,25.70
2022-08-05T05:33:09.134Z,25.70
2022-08-05T05:35:50.541Z,25.70
2022-08-05T05:38:22.925Z,25.50
2022-08-05T05:40:58.816Z,25.60
2022-08-05T05:43:57.478Z,25.60
2022-08-05T05:46:18.778Z,25.70
2022-08-05T05:48:49.878Z,25.70
2022-08-05T05:51:23.102Z,25.70
2022-08-05T05:53:57.723Z,25.70
2022-08-05T05:56:35.720Z,25.70
2022-08-05T05:59:06.475Z,25.80
2022-08-05T06:01:39.598Z,25.80
2022-08-05T06:04:16.947Z,25.80
2022-08-05T06:06:47.407Z,25.80
2022-08-05T06:09:25.750Z,25.80
2022-08-05T06:12:01.354Z,25.80
2022-08-05T06:14:34.636Z,25.80
2022-08-05T06:17:22.494Z,25.80
2022-08-05T06:19:56.927Z,25.90
2022-08-05T06:22:33.389Z,25.90
2022-08-05T06:25:59.857Z,25.90
2022-08-05T06:28:12.384Z,25.90
2022-08-05T06:30:45.414Z,25.80
2022-08-05T06:33:19.171Z,25.70
2022-08-05T06:36:07.642Z,25.70
2022-08-05T06:38:35.845Z,25.80
2022-08-05T06:41:13.999Z,25.80
2022-08-05T06:44:00.259Z,25.80
2022-08-05T06:46:37.204Z,25.80
2022-08-05T06:49:07.527Z,25.80
2022-08-05T06:51:50.234Z,25.70
2022-08-05T06:54:19.180Z,25.70
2022-08-05T06:56:54.670Z,25.60
2022-08-05T06:59:42.381Z,25.60
2022-08-05T07:02:22.999Z,25.60
2022-08-05T07:04:50.997Z,25.50
2022-08-05T07:07:24.111Z,25.40
2022-08-05T07:10:08.216Z,25.30
2022-08-05T07:12:54.347Z,25.20
2022-08-05T07:16:01.285Z,25.20
2022-08-05T07:18:32.379Z,25.10
2022-08-05T07:21:04.656Z,25.10
2022-08-05T07:23:33.565Z,24.80
2022-08-05T07:26:10.092Z,24.70
2022-08-05T07:28:41.939Z,24.60
2022-08-05T07:31:13.627Z,24.80
2022-08-05T07:33:43.642Z,24.80
2022-08-05T07:36:20.709Z,24.90
2022-08-05T07:38:54.690Z,24.80
2022-08-05T07:42:08.290Z,24.80
2022-08-05T07:44:19.254Z,24.80
2022-08-05T07:46:50.421Z,24.60
2022-08-05T07:49:19.386Z,24.60
2022-08-05T07:51:53.186Z,24.30
2022-08-05T07:54:30.903Z,24.40
2022-08-05T07:57:16.969Z,24.50
2022-08-05T07:59:50.141Z,24.50
2022-08-05T08:02:21.485Z,24.60
2022-08-05T08:04:54.979Z,24.60
2022-08-05T08:07:23.421Z,24.70
2022-08-05T08:09:55.345Z,24.70
2022-08-05T08:12:35.674Z,24.80
2022-08-05T08:15:15.842Z,24.70
2022-08-05T08:17:52.332Z,24.50
2022-08-05T08:20:44.175Z,24.50
2022-08-05T08:24:01.654Z,24.60
2022-08-05T08:26:04.728Z,24.50
2022-08-05T08:28:37.244Z,24.40
2022-08-05T08:31:21.158Z,24.30
2022-08-05T08:33:53.268Z,24.20
2022-08-05T08:36:38.176Z,24.20
2022-08-05T08:39:15.622Z,24.20
2022-08-05T08:41:59.813Z,24.30
2022-08-05T08:45:19.057Z,24.30
2022-08-05T08:48:06.618Z,24.40
2022-08-05T08:50:31.103Z,24.40
2022-08-05T08:53:11.976Z,24.30
2022-08-05T08:56:04.591Z,24.10
2022-08-05T08:58:43.875Z,24.10
2022-08-05T09:01:20.028Z,23.80
2022-08-05T09:03:54.540Z,23.90
2022-08-05T09:06:30.786Z,24.00
2022-08-05T09:09:01.092Z,24.00
2022-08-05T09:11:50.414Z,24.00
2022-08-05T09:14:56.648Z,24.00
2022-08-05T09:17:15.980Z,24.00
2022-08-05T09:20:04.654Z,24.20
2022-08-05T09:23:19.242Z,24.20
2022-08-05T09:26:02.927Z,24.10
2022-08-05T09:28:35.963Z,24.20
2022-08-05T09:31:22.440Z,24.30
2022-08-05T09:33:58.473Z,24.40
2022-08-05T09:36:38.291Z,24.20
2022-08-05T09:39:18.226Z,24.20
2022-08-05T09:41:58.483Z,24.30
2022-08-05T09:44:40.324Z,24.40
2022-08-05T09:47:15.393Z,24.50
2022-08-05T09:50:00.991Z,24.60
2022-08-05T09:52:32.719Z,24.60
2022-08-05T09:55:56.506Z,24.70
2022-08-05T09:57:58.848Z,24.80
2022-08-05T10:00:29.575Z,24.80
2022-08-05T10:02:59.146Z,24.80
2022-08-05T10:05:32.662Z,24.90
2022-08-05T10:08:35.203Z,24.90
2022-08-05T10:10:54.074Z,24.90
2022-08-05T10:13:31.546Z,24.90
2022-08-05T10:16:32.132Z,24.90
2022-08-05T10:19:08.483Z,24.80
2022-08-05T10:21:40.259Z,24.80
2022-08-05T10:24:12.937Z,24.90
2022-08-05T10:26:51.387Z,24.90
2022-08-05T10:30:05.725Z,24.90
2022-08-05T10:32:55.079Z,24.80
2022-08-05T10:35:01.145Z,24.80
2022-08-05T10:37:37.151Z,24.80
2022-08-05T10:40:28.004Z,24.80
2022-08-05T10:43:04.512Z,24.90
2022-08-05T10:45:42.109Z,24.90
2022-08-05T10:48:52.357Z,24.80
2022-08-05T10:51:28.935Z,24.60
2022-08-05T10:54:23.202Z,24.70
2022-08-05T10:56:52.890Z,24.80
2022-08-05T11:00:02.483Z,24.80
2022-08-05T11:02:34.887Z,24.70
2022-08-05T11:05:10.266Z,24.80
2022-08-05T11:08:03.254Z,24.70
2022-08-05T11:10:38.243Z,24.60
2022-08-05T11:13:57.767Z,24.70
2022-08-05T11:16:47.757Z,24.70
2022-08-05T11:20:10.081Z,24.80
2022-08-05T11:22:42.210Z,24.80
2022-08-05T11:26:04.517Z,25.10
2022-08-05T11:28:51.470Z,25.20
2022-08-05T11:31:57.115Z,25.30
2022-08-05T11:34:22.532Z,25.40
2022-08-05T11:36:54.491Z,25.60
2022-08-05T11:40:00.661Z,25.60
2022-08-05T11:42:40.224Z,25.90
2022-08-05T11:45:14.444Z,26.10
2022-08-05T11:47:54.817Z,26.00
2022-08-05T11:50:25.125Z,26.10
2022-08-05T11:52:57.935Z,26.20
2022-08-05T11:55:31.992Z,26.40
2022-08-05T11:58:09.586Z,26.50
2022-08-05T12:00:41.394Z,26.60
2022-08-05T12:03:28.548Z,26.80
2022-08-05T12:06:10.023Z,27.00
2022-08-05T12:08:49.902Z,27.00
2022-08-05T12:11:21.421Z,27.00
2022-08-05T12:13:58.609Z,27.10
2022-08-05T12:16:29.662Z,27.10
2022-08-05T12:18:57.592Z,27.20
2022-08-05T12:21:30.052Z,27.30
2022-08-05T12:24:04.990Z,27.40
2022-08-05T12:26:36.718Z,27.40
2022-08-05T12:29:09.440Z,27.50
2022-08-05T12:31:49.862Z,27.40
2022-08-05T12:34:25.771Z,27.30
2022-08-05T12:36:57.006Z,27.40
2022-08-05T12:39:34.300Z,27.50
2022-08-05T12:42:10.069Z,27.50
2022-08-05T12:44:44.946Z,27.40
2022-08-05T12:47:25.558Z,27.30
2022-08-05T12:50:04.782Z,27.10
2022-08-05T12:52:39.487Z,26.80
2022-08-05T12:55:23.799Z,26.90
2022-08-05T12:58:49.151Z,27.00
2022-08-05T13:02:04.165Z,27.20
2022-08-05T13:03:39.014Z,27.10
2022-08-05T13:06:15.910Z,27.10
2022-08-05T13:08:52.333Z,27.10
2022-08-05T13:11:25.304Z,27.20
2022-08-05T13:14:25.122Z,27.30
2022-08-05T13:17:05.264Z,27.20
2022-08-05T13:19:40.435Z,27.20
2022-08-05T13:22:29.561Z,27.30
2022-08-05T13:25:05.769Z,27.30
2022-08-05T13:27:39.102Z,27.30
2022-08-05T13:30:35.274Z,27.20
2022-08-05T13:33:00.894Z,27.20
2022-08-05T13:35:31.518Z,27.10
2022-08-05T13:38:28.657Z,27.00
2022-08-05T13:41:03.626Z,26.90
2022-08-05T13:43:44.496Z,27.00
2022-08-05T13:46:35.814Z,27.00
2022-08-05T13:49:10.399Z,27.00
2022-08-05T13:51:41.669Z,27.10
2022-08-05T13:54:15.352Z,27.20
2022-08-05T13:56:51.235Z,27.40
2022-08-05T13:59:23.759Z,27.50
2022-08-05T14:01:57.826Z,27.50
2022-08-05T14:04:49.695Z,27.60
2022-08-05T14:07:26.204Z,27.70
2022-08-05T14:10:08.370Z,27.80
2022-08-05T14:12:38.167Z,27.70
2022-08-05T14:16:08.817Z,27.60
2022-08-05T14:17:57.804Z,27.50
2022-08-05T14:20:27.842Z,27.50
2022-08-05T14:22:56.064Z,27.40
2022-08-05T14:25:28.090Z,27.30
2022-08-05T14:27:58.371Z,27.10
2022-08-05T14:30:28.015Z,26.80
2022-08-05T14:32:56.642Z,26.60
2022-08-05T14:35:37.551Z,26.60
2022-08-05T14:38:33.212Z,26.70
2022-08-05T14:41:06.194Z,26.70
2022-08-05T14:44:00.309Z,26.60
2022-08-05T14:46:28.117Z,26.50
2022-08-05T14:48:58.734Z,26.50
2022-08-05T14:51:31.100Z,26.50
2022-08-05T14:54:26.656Z,26.50
2022-08-05T14:56:47.321Z,26.50
2022-08-05T14:59:16.915Z,26.40
2022-08-05T15:01:48.826Z,26.50
2022-08-05T15:04:17.429Z,26.60
2022-08-05T15:06:49.121Z,26.50
2022-08-05T15:09:51.743Z,26.60
2022-08-05T15:12:09.519Z,26.60
2022-08-05T15:14:48.171Z,26.60
2022-08-05T15:17:47.709Z,26.50
2022-08-05T15:20:18.558Z,26.50
2022-08-05T15:22:52.365Z,26.40
2022-08-05T15:25:23.678Z,26.50
2022-08-05T15:28:13.430Z,26.60
2022-08-05T15:30:45.714Z,26.80
2022-08-05T15:33:56.853Z,26.90
2022-08-05T15:36:03.930Z,26.90
2022-08-05T15:38:35.388Z,27.10
2022-08-05T15:41:22.565Z,27.10
2022-08-05T15:43:51.565Z,27.20
2022-08-05T15:46:25.200Z,27.30
2022-08-05T15:49:00.967Z,27.30
2022-08-05T15:52:13.348Z,27.40
2022-08-05T15:54:34.719Z,27.30
2022-08-05T15:57:03.507Z,27.40
2022-08-05T15:59:35.576Z,27.40
2022-08-05T16:02:09.782Z,27.40
2022-08-05T16:04:43.326Z,27.40
2022-08-05T16:07:13.214Z,27.40
2022-08-05T16:09:42.071Z,27.30
2022-08-05T16:12:12.229Z,27.20
2022-08-05T16:14:40.460Z,27.10
2022-08-05T16:17:09.939Z,27.00
2022-08-05T16:20:05.693Z,26.90
2022-08-05T16:22:27.804Z,26.90
2022-08-05T16:25:05.254Z,26.70
2022-08-05T16:28:00.872Z,26.70
2022-08-05T16:30:28.907Z,26.60
2022-08-05T16:32:59.781Z,26.60
2022-08-05T16:35:32.347Z,26.60
2022-08-05T16:38:18.752Z,26.50
2022-08-05T16:40:55.497Z,26.50
2022-08-05T16:43:31.023Z,26.30
2022-08-05T16:46:03.851Z,26.40
2022-08-05T16:48:39.388Z,26.30
2022-08-05T16:51:10.068Z,25.80
2022-08-05T16:54:05.898Z,25.70
2022-08-05T16:56:29.974Z,25.70
2022-08-05T16:58:58.211Z,25.90
2022-08-05T17:01:26.854Z,26.00
2022-08-05T17:03:56.171Z,25.80
2022-08-05T17:06:24.685Z,25.70
2022-08-05T17:08:54.459Z,25.50
2022-08-05T17:11:25.725Z,25.40
2022-08-05T17:14:05.552Z,25.10
2022-08-05T17:16:36.423Z,25.20
2022-08-05T17:19:07.785Z,25.30
2022-08-05T17:21:39.601Z,25.30
2022-08-05T17:24:19.310Z,25.10
2022-08-05T17:26:57.451Z,24.80
2022-08-05T17:29:33.484Z,24.60
2022-08-05T17:32:11.720Z,24.30
2022-08-05T17:34:50.284Z,24.40
2022-08-05T17:37:40.066Z,24.80
2022-08-05T17:40:13.439Z,25.00
2022-08-05T17:42:49.725Z,25.10
2022-08-05T17:45:21.783Z,25.10
2022-08-05T17:47:54.517Z,25.00
2022-08-05T17:50:28.504Z,25.00
2022-08-05T17:53:02.709Z,25.00
2022-08-05T17:55:39.393Z,25.00
2022-08-05T17:58:13.208Z,25.10
2022-08-05T18:00:45.331Z,25.00
2022-08-05T18:03:56.304Z,24.90
2022-08-05T18:06:11.153Z,24.80
2022-08-05T18:08:40.582Z,24.20
2022-08-05T18:11:23.637Z,24.40
2022-08-05T18:13:54.476Z,23.90
2022-08-05T18:16:23.466Z,23.80
2022-08-05T18:18:51.418Z,23.90
2022-08-05T18:21:25.903Z,23.90
2022-08-05T18:23:54.501Z,23.60
2022-08-05T18:26:29.442Z,23.90
2022-08-05T18:29:00.789Z,24.00
2022-08-05T18:31:33.797Z,24.20
2022-08-05T18:34:05.807Z,24.00
2022-08-05T18:36:36.284Z,24.00
2022-08-05T18:39:06.530Z,23.80
2022-08-05T18:41:56.501Z,23.80
2022-08-05T18:44:34.646Z,23.70
2022-08-05T18:47:04.681Z,23.90
2022-08-05T18:49:57.230Z,24.10
2022-08-05T18:52:37.808Z,24.30
2022-08-05T18:55:10.276Z,24.40
2022-08-05T18:57:50.078Z,24.40
2022-08-05T19:00:25.058Z,24.40
2022-08-05T19:02:57.537Z,24.50
2022-08-05T19:06:11.444Z,24.40
2022-08-05T19:08:30.853Z,24.40
2022-08-05T19:11:04.669Z,24.40
2022-08-05T19:13:35.556Z,24.40
2022-08-05T19:16:05.145Z,24.40
2022-08-05T19:18:53.758Z,24.40
2022-08-05T19:21:25.817Z,24.30
2022-08-05T19:24:06.525Z,24.20
2022-08-05T19:26:54.691Z,24.20
2022-08-05T19:29:26.615Z,24.20
2022-08-05T19:32:03.707Z,24.10
2022-08-05T19:34:35.169Z,24.00
2022-08-05T19:37:03.159Z,24.00
2022-08-05T19:39:32.492Z,24.10
2022-08-05T19:42:16.232Z,24.00
2022-08-05T19:44:45.092Z,24.10
2022-08-05T19:47:16.142Z,24.10
2022-08-05T19:49:46.999Z,23.90
2022-08-05T19:52:30.170Z,23.90
2022-08-05T19:55:07.268Z,23.90
2022-08-05T19:58:19.659Z,23.80
2022-08-05T20:00:37.749Z,23.80
2022-08-05T20:03:09.194Z,23.80
2022-08-05T20:05:50.301Z,23.90
2022-08-05T20:08:19.688Z,23.60
2022-08-05T20:10:51.494Z,23.60
2022-08-05T20:13:30.322Z,23.60
2022-08-05T20:16:10.372Z,23.60
2022-08-05T20:18:38.399Z,23.60
2022-08-05T20:21:07.831Z,23.50
2022-08-05T20:23:40.147Z,23.40
2022-08-05T20:26:20.979Z,23.40
2022-08-05T20:28:51.150Z,23.30
2022-08-05T20:31:37.101Z,23.20
2022-08-05T20:34:10.880Z,23.20
2022-08-05T20:36:43.157Z,23.20
2022-08-05T20:39:13.261Z,23.30
2022-08-05T20:41:43.762Z,23.20
2022-08-05T20:44:29.857Z,23.30
2022-08-05T20:47:00.855Z,23.30
2022-08-05T20:49:29.493Z,23.20
2022-08-05T20:52:06.236Z,23.20
2022-08-05T20:54:55.028Z,23.00
2022-08-05T20:57:44.135Z,23.00
2022-08-05T21:00:40.377Z,23.00
2022-08-05T21:03:07.025Z,23.10
2022-08-05T21:05:54.762Z,23.00
2022-08-05T21:08:27.956Z,23.00
2022-08-05T21:11:10.108Z,23.20
2022-08-05T21:13:48.174Z,23.10
2022-08-05T21:16:29.358Z,23.00
2022-08-05T21:19:00.110Z,23.00
2022-08-05T21:21:39.131Z,23.00
2022-08-05T21:24:13.378Z,22.90
2022-08-05T21:26:47.158Z,22.90
2022-08-05T21:29:26.690Z,22.90
2022-08-05T21:32:02.904Z,22.90
2022-08-05T21:34:31.597Z,22.80
2022-08-05T21:37:00.813Z,22.80
2022-08-05T21:39:29.816Z,22.60
2022-08-05T21:42:01.983Z,22.60
2022-08-05T21:44:32.086Z,22.50
2022-08-05T21:47:00.270Z,22.50
2022-08-05T21:49:48.181Z,22.50
2022-08-05T21:52:27.776Z,22.60
2022-08-05T21:54:56.808Z,22.60
2022-08-05T21:57:32.885Z,22.70
2022-08-05T22:00:06.031Z,22.60
2022-08-05T22:02:35.480Z,22.60
2022-08-05T22:05:04.512Z,22.70
2022-08-05T22:07:54.584Z,22.70
2022-08-05T22:10:27.056Z,22.70
2022-08-05T22:12:57.630Z,22.70
2022-08-05T22:16:02.036Z,22.60
2022-08-05T22:18:19.493Z,22.60
2022-08-05T22:20:52.696Z,22.40
2022-08-05T22:24:00.794Z,22.40
2022-08-05T22:26:49.902Z,22.40
2022-08-05T22:29:18.795Z,22.30
2022-08-05T22:31:59.609Z,22.20
2022-08-05T22:34:32.502Z,22.20
2022-08-05T22:37:00.847Z,22.20
2022-08-05T22:39:34.330Z,22.20
2022-08-05T22:42:09.430Z,22.20
2022-08-05T22:44:40.005Z,22.10
2022-08-05T22:47:09.613Z,22.10
2022-08-05T22:50:19.595Z,22.00
2022-08-05T22:52:32.703Z,22.10
2022-08-05T22:55:04.312Z,22.10
2022-08-05T22:57:46.584Z,22.00
2022-08-05T23:00:18.341Z,22.00
2022-08-05T23:02:51.824Z,22.10
2022-08-05T23:05:22.058Z,22.20
2022-08-05T23:07:50.733Z,22.20
2022-08-05T23:10:20.965Z,22.20
2022-08-05T23:12:55.200Z,22.20
2022-08-05T23:15:29.304Z,22.20
2022-08-05T23:18:03.682Z,22.20
2022-08-05T23:20:37.260Z,22.20
2022-08-05T23:23:08.237Z,22.30
2022-08-05T23:25:53.302Z,22.30
2022-08-05T23:28:28.880Z,22.30
2022-08-05T23:31:07.066Z,22.30
2022-08-05T23:34:04.982Z,22.20
2022-08-05T23:36:39.569Z,22.20
2022-08-05T23:39:17.294Z,22.10
2022-08-05T23:41:51.844Z,22.20
2022-08-05T23:44:25.139Z,22.20
2022-08-05T23:46:56.166Z,22.10
2022-08-05T23:49:35.764Z,22.20
2022-08-05T23:52:22.224Z,22.20
2022-08-05T23:54:54.362Z,22.20
2022-08-05T23:57:22.965Z,22.20
